sensor_id;sensor_type;location;lat;lon;timestamp;P1;durP1;ratioP1;P2;durP2;ratioP2
76290;SDS011;65100;46.884;17.410;2022-12-07T00:01:32;42.58;;;15.10;;
76290;SDS011;65100;46.884;17.410;2022-12-07T00:04:01;35.40;;;15.20;;
76290;SDS011;65100;46.884;17.410;2022-12-07T00:06:35;34.58;;;13.95;;
76290;SDS011;65100;46.884;17.410;2022-12-07T00:09:02;38.38;;;15.07;;
76290;SDS011;65100;46.884;17.410;2022-12-07T00:11:29;37.00;;;14.03;;
76290;SDS011;65100;46.884;17.410;2022-12-07T00:13:55;34.67;;;14.10;;
76290;SDS011;65100;46.884;17.410;2022-12-07T00:16:24;34.45;;;14.90;;
76290;SDS011;65100;46.884;17.410;2022-12-07T00:18:51;32.17;;;13.95;;
76290;SDS011;65100;46.884;17.410;2022-12-07T00:21:17;34.23;;;14.90;;
76290;SDS011;65100;46.884;17.410;2022-12-07T00:23:45;34.90;;;13.70;;
76290;SDS011;65100;46.884;17.410;2022-12-07T00:26:13;31.30;;;13.30;;
76290;SDS011;65100;46.884;17.410;2022-12-07T00:28:47;32.28;;;12.65;;
76290;SDS011;65100;46.884;17.410;2022-12-07T00:31:14;38.85;;;14.93;;
76290;SDS011;65100;46.884;17.410;2022-12-07T00:33:41;37.20;;;13.82;;
76290;SDS011;65100;46.884;17.410;2022-12-07T00:36:07;38.47;;;14.57;;
76290;SDS011;65100;46.884;17.410;2022-12-07T00:38:35;39.80;;;13.77;;
76290;SDS011;65100;46.884;17.410;2022-12-07T00:41:03;36.85;;;14.02;;
76290;SDS011;65100;46.884;17.410;2022-12-07T00:43:31;32.67;;;13.25;;
76290;SDS011;65100;46.884;17.410;2022-12-07T00:45:56;39.47;;;14.00;;
76290;SDS011;65100;46.884;17.410;2022-12-07T00:48:22;30.10;;;13.30;;
76290;SDS011;65100;46.884;17.410;2022-12-07T00:50:48;31.50;;;13.40;;
76290;SDS011;65100;46.884;17.410;2022-12-07T00:53:14;36.28;;;13.70;;
76290;SDS011;65100;46.884;17.410;2022-12-07T00:55:40;34.08;;;12.63;;
76290;SDS011;65100;46.884;17.410;2022-12-07T00:58:06;31.40;;;13.10;;
76290;SDS011;65100;46.884;17.410;2022-12-07T01:00:32;36.47;;;13.45;;
76290;SDS011;65100;46.884;17.410;2022-12-07T01:02:58;32.60;;;12.75;;
76290;SDS011;65100;46.884;17.410;2022-12-07T01:05:24;41.00;;;13.30;;
76290;SDS011;65100;46.884;17.410;2022-12-07T01:07:49;36.70;;;14.03;;
76290;SDS011;65100;46.884;17.410;2022-12-07T01:10:15;32.93;;;12.37;;
76290;SDS011;65100;46.884;17.410;2022-12-07T01:12:40;32.33;;;13.07;;
76290;SDS011;65100;46.884;17.410;2022-12-07T01:15:06;34.97;;;13.23;;
76290;SDS011;65100;46.884;17.410;2022-12-07T01:17:32;36.10;;;13.30;;
76290;SDS011;65100;46.884;17.410;2022-12-07T01:19:59;30.10;;;11.68;;
76290;SDS011;65100;46.884;17.410;2022-12-07T01:22:24;30.50;;;12.48;;
76290;SDS011;65100;46.884;17.410;2022-12-07T01:24:50;28.33;;;12.57;;
76290;SDS011;65100;46.884;17.410;2022-12-07T01:27:15;35.27;;;13.47;;
76290;SDS011;65100;46.884;17.410;2022-12-07T01:29:41;35.28;;;12.75;;
76290;SDS011;65100;46.884;17.410;2022-12-07T01:32:06;29.93;;;11.90;;
76290;SDS011;65100;46.884;17.410;2022-12-07T01:34:32;29.85;;;12.23;;
76290;SDS011;65100;46.884;17.410;2022-12-07T01:36:58;28.63;;;11.73;;
76290;SDS011;65100;46.884;17.410;2022-12-07T01:39:23;30.30;;;12.67;;
76290;SDS011;65100;46.884;17.410;2022-12-07T01:41:49;29.95;;;12.90;;
76290;SDS011;65100;46.884;17.410;2022-12-07T01:44:25;29.10;;;12.50;;
76290;SDS011;65100;46.884;17.410;2022-12-07T01:47:02;35.58;;;13.98;;
76290;SDS011;65100;46.884;17.410;2022-12-07T01:49:35;35.45;;;14.48;;
76290;SDS011;65100;46.884;17.410;2022-12-07T01:54:39;36.58;;;14.75;;
76290;SDS011;65100;46.884;17.410;2022-12-07T01:57:06;36.37;;;14.50;;
76290;SDS011;65100;46.884;17.410;2022-12-07T01:59:33;39.97;;;14.88;;
76290;SDS011;65100;46.884;17.410;2022-12-07T02:01:59;36.40;;;14.48;;
76290;SDS011;65100;46.884;17.410;2022-12-07T02:04:27;46.15;;;15.10;;
76290;SDS011;65100;46.884;17.410;2022-12-07T02:06:53;47.08;;;14.65;;
76290;SDS011;65100;46.884;17.410;2022-12-07T02:09:19;44.53;;;15.07;;
76290;SDS011;65100;46.884;17.410;2022-12-07T02:11:45;39.92;;;15.23;;
76290;SDS011;65100;46.884;17.410;2022-12-07T02:14:11;46.53;;;15.73;;
76290;SDS011;65100;46.884;17.410;2022-12-07T02:19:44;44.22;;;13.85;;
76290;SDS011;65100;46.884;17.410;2022-12-07T02:24:57;45.72;;;12.68;;
76290;SDS011;65100;46.884;17.410;2022-12-07T02:30:21;50.87;;;12.30;;
76290;SDS011;65100;46.884;17.410;2022-12-07T02:43:45;57.47;;;15.63;;
76290;SDS011;65100;46.884;17.410;2022-12-07T02:46:22;52.50;;;16.02;;
76290;SDS011;65100;46.884;17.410;2022-12-07T02:48:50;43.63;;;15.10;;
76290;SDS011;65100;46.884;17.410;2022-12-07T02:51:18;36.33;;;14.50;;
76290;SDS011;65100;46.884;17.410;2022-12-07T02:53:44;34.70;;;13.50;;
76290;SDS011;65100;46.884;17.410;2022-12-07T02:58:54;39.85;;;12.70;;
76290;SDS011;65100;46.884;17.410;2022-12-07T03:06:56;31.67;;;12.65;;
76290;SDS011;65100;46.884;17.410;2022-12-07T03:09:37;49.63;;;14.13;;
76290;SDS011;65100;46.884;17.410;2022-12-07T03:15:27;46.78;;;14.45;;
76290;SDS011;65100;46.884;17.410;2022-12-07T03:17:58;41.55;;;14.63;;
76290;SDS011;65100;46.884;17.410;2022-12-07T03:20:25;35.70;;;12.70;;
76290;SDS011;65100;46.884;17.410;2022-12-07T03:22:53;36.67;;;12.03;;
76290;SDS011;65100;46.884;17.410;2022-12-07T03:25:19;54.38;;;11.68;;
76290;SDS011;65100;46.884;17.410;2022-12-07T03:27:48;32.90;;;12.75;;
76290;SDS011;65100;46.884;17.410;2022-12-07T03:30:27;36.10;;;12.65;;
76290;SDS011;65100;46.884;17.410;2022-12-07T03:33:08;28.73;;;10.97;;
76290;SDS011;65100;46.884;17.410;2022-12-07T03:35:45;37.83;;;12.90;;
76290;SDS011;65100;46.884;17.410;2022-12-07T03:38:18;35.75;;;12.52;;
76290;SDS011;65100;46.884;17.410;2022-12-07T03:40:56;36.38;;;11.52;;
76290;SDS011;65100;46.884;17.410;2022-12-07T03:43:40;32.60;;;11.93;;
76290;SDS011;65100;46.884;17.410;2022-12-07T03:48:58;35.08;;;12.00;;
76290;SDS011;65100;46.884;17.410;2022-12-07T03:54:57;33.92;;;12.60;;
76290;SDS011;65100;46.884;17.410;2022-12-07T03:57:24;37.80;;;12.32;;
76290;SDS011;65100;46.884;17.410;2022-12-07T03:59:51;30.53;;;9.53;;
76290;SDS011;65100;46.884;17.410;2022-12-07T04:02:19;28.20;;;9.70;;
76290;SDS011;65100;46.884;17.410;2022-12-07T04:04:45;30.02;;;10.55;;
76290;SDS011;65100;46.884;17.410;2022-12-07T04:07:11;25.83;;;9.53;;
76290;SDS011;65100;46.884;17.410;2022-12-07T04:09:39;30.60;;;9.27;;
76290;SDS011;65100;46.884;17.410;2022-12-07T04:12:04;31.10;;;10.10;;
76290;SDS011;65100;46.884;17.410;2022-12-07T04:14:30;32.60;;;9.82;;
76290;SDS011;65100;46.884;17.410;2022-12-07T04:16:56;32.13;;;10.60;;
76290;SDS011;65100;46.884;17.410;2022-12-07T04:19:23;27.13;;;9.15;;
76290;SDS011;65100;46.884;17.410;2022-12-07T04:21:57;28.95;;;9.32;;
76290;SDS011;65100;46.884;17.410;2022-12-07T04:24:24;21.43;;;8.70;;
76290;SDS011;65100;46.884;17.410;2022-12-07T04:26:51;23.02;;;8.85;;
76290;SDS011;65100;46.884;17.410;2022-12-07T04:29:16;24.08;;;9.05;;
76290;SDS011;65100;46.884;17.410;2022-12-07T04:31:45;23.98;;;8.75;;
76290;SDS011;65100;46.884;17.410;2022-12-07T04:34:11;23.23;;;8.10;;
76290;SDS011;65100;46.884;17.410;2022-12-07T04:36:37;27.33;;;9.57;;
76290;SDS011;65100;46.884;17.410;2022-12-07T04:39:03;25.05;;;8.68;;
76290;SDS011;65100;46.884;17.410;2022-12-07T04:41:31;22.98;;;8.85;;
76290;SDS011;65100;46.884;17.410;2022-12-07T04:43:58;25.10;;;8.63;;
76290;SDS011;65100;46.884;17.410;2022-12-07T04:46:26;21.52;;;8.70;;
76290;SDS011;65100;46.884;17.410;2022-12-07T04:48:53;20.20;;;9.30;;
76290;SDS011;65100;46.884;17.410;2022-12-07T04:51:21;25.60;;;10.13;;
76290;SDS011;65100;46.884;17.410;2022-12-07T04:53:49;22.27;;;10.00;;
76290;SDS011;65100;46.884;17.410;2022-12-07T04:56:15;24.08;;;10.93;;
76290;SDS011;65100;46.884;17.410;2022-12-07T04:58:41;25.48;;;10.07;;
76290;SDS011;65100;46.884;17.410;2022-12-07T05:01:08;21.55;;;9.70;;
76290;SDS011;65100;46.884;17.410;2022-12-07T05:03:33;21.67;;;9.70;;
76290;SDS011;65100;46.884;17.410;2022-12-07T05:06:00;21.73;;;9.93;;
76290;SDS011;65100;46.884;17.410;2022-12-07T05:08:25;18.77;;;9.30;;
76290;SDS011;65100;46.884;17.410;2022-12-07T05:10:51;19.07;;;9.40;;
76290;SDS011;65100;46.884;17.410;2022-12-07T05:13:16;19.42;;;9.10;;
76290;SDS011;65100;46.884;17.410;2022-12-07T05:15:42;17.80;;;8.33;;
76290;SDS011;65100;46.884;17.410;2022-12-07T05:18:09;19.98;;;9.45;;
76290;SDS011;65100;46.884;17.410;2022-12-07T05:20:35;28.70;;;9.50;;
76290;SDS011;65100;46.884;17.410;2022-12-07T05:23:00;25.27;;;9.63;;
76290;SDS011;65100;46.884;17.410;2022-12-07T05:25:26;23.13;;;9.90;;
76290;SDS011;65100;46.884;17.410;2022-12-07T05:27:51;27.63;;;9.97;;
76290;SDS011;65100;46.884;17.410;2022-12-07T05:30:16;30.53;;;9.70;;
76290;SDS011;65100;46.884;17.410;2022-12-07T05:32:42;28.30;;;10.13;;
76290;SDS011;65100;46.884;17.410;2022-12-07T05:35:07;34.97;;;10.13;;
76290;SDS011;65100;46.884;17.410;2022-12-07T05:37:33;28.30;;;9.45;;
76290;SDS011;65100;46.884;17.410;2022-12-07T05:39:58;25.57;;;9.83;;
76290;SDS011;65100;46.884;17.410;2022-12-07T05:42:24;30.83;;;10.07;;
76290;SDS011;65100;46.884;17.410;2022-12-07T05:44:49;28.58;;;10.30;;
76290;SDS011;65100;46.884;17.410;2022-12-07T05:47:15;30.23;;;10.33;;
76290;SDS011;65100;46.884;17.410;2022-12-07T05:49:41;29.47;;;10.80;;
76290;SDS011;65100;46.884;17.410;2022-12-07T05:52:06;30.27;;;12.07;;
76290;SDS011;65100;46.884;17.410;2022-12-07T05:54:32;31.25;;;11.82;;
76290;SDS011;65100;46.884;17.410;2022-12-07T05:56:58;37.97;;;13.13;;
76290;SDS011;65100;46.884;17.410;2022-12-07T05:59:24;48.03;;;15.60;;
76290;SDS011;65100;46.884;17.410;2022-12-07T06:04:25;48.03;;;15.73;;
76290;SDS011;65100;46.884;17.410;2022-12-07T06:06:52;47.67;;;16.33;;
76290;SDS011;65100;46.884;17.410;2022-12-07T06:09:19;50.10;;;14.90;;
76290;SDS011;65100;46.884;17.410;2022-12-07T06:11:46;42.25;;;15.15;;
76290;SDS011;65100;46.884;17.410;2022-12-07T06:14:30;37.60;;;12.60;;
76290;SDS011;65100;46.884;17.410;2022-12-07T06:16:56;45.95;;;11.90;;
76290;SDS011;65100;46.884;17.410;2022-12-07T06:19:21;42.93;;;12.63;;
76290;SDS011;65100;46.884;17.410;2022-12-07T06:21:47;41.95;;;13.63;;
76290;SDS011;65100;46.884;17.410;2022-12-07T06:24:13;38.97;;;12.03;;
76290;SDS011;65100;46.884;17.410;2022-12-07T06:26:39;42.35;;;15.32;;
76290;SDS011;65100;46.884;17.410;2022-12-07T06:29:05;32.33;;;11.73;;
76290;SDS011;65100;46.884;17.410;2022-12-07T06:31:31;29.73;;;12.93;;
76290;SDS011;65100;46.884;17.410;2022-12-07T06:34:00;28.98;;;12.30;;
76290;SDS011;65100;46.884;17.410;2022-12-07T06:36:27;27.92;;;10.85;;
76290;SDS011;65100;46.884;17.410;2022-12-07T06:38:53;28.43;;;10.23;;
76290;SDS011;65100;46.884;17.410;2022-12-07T06:41:19;28.52;;;10.93;;
76290;SDS011;65100;46.884;17.410;2022-12-07T06:43:44;23.03;;;10.00;;
76290;SDS011;65100;46.884;17.410;2022-12-07T06:46:10;24.73;;;10.27;;
76290;SDS011;65100;46.884;17.410;2022-12-07T06:48:35;21.60;;;8.73;;
76290;SDS011;65100;46.884;17.410;2022-12-07T06:51:01;19.67;;;9.33;;
76290;SDS011;65100;46.884;17.410;2022-12-07T06:53:26;20.73;;;9.00;;
76290;SDS011;65100;46.884;17.410;2022-12-07T06:55:52;20.63;;;9.38;;
76290;SDS011;65100;46.884;17.410;2022-12-07T06:58:17;20.90;;;8.97;;
76290;SDS011;65100;46.884;17.410;2022-12-07T07:00:44;21.70;;;9.98;;
76290;SDS011;65100;46.884;17.410;2022-12-07T07:03:10;22.80;;;9.95;;
76290;SDS011;65100;46.884;17.410;2022-12-07T07:05:35;21.97;;;9.60;;
76290;SDS011;65100;46.884;17.410;2022-12-07T07:08:01;31.00;;;13.50;;
76290;SDS011;65100;46.884;17.410;2022-12-07T07:10:27;24.85;;;10.95;;
76290;SDS011;65100;46.884;17.410;2022-12-07T07:12:53;19.40;;;9.40;;
76290;SDS011;65100;46.884;17.410;2022-12-07T07:15:18;20.98;;;10.40;;
76290;SDS011;65100;46.884;17.410;2022-12-07T07:17:44;20.70;;;9.63;;
76290;SDS011;65100;46.884;17.410;2022-12-07T07:20:10;19.95;;;9.52;;
76290;SDS011;65100;46.884;17.410;2022-12-07T07:22:36;20.90;;;9.95;;
76290;SDS011;65100;46.884;17.410;2022-12-07T07:25:02;20.20;;;8.67;;
76290;SDS011;65100;46.884;17.410;2022-12-07T07:27:27;19.48;;;10.05;;
76290;SDS011;65100;46.884;17.410;2022-12-07T07:29:53;19.57;;;10.07;;
76290;SDS011;65100;46.884;17.410;2022-12-07T07:32:18;19.80;;;9.07;;
76290;SDS011;65100;46.884;17.410;2022-12-07T07:34:44;17.48;;;8.68;;
76290;SDS011;65100;46.884;17.410;2022-12-07T07:37:09;16.93;;;9.07;;
76290;SDS011;65100;46.884;17.410;2022-12-07T07:39:37;17.30;;;8.85;;
76290;SDS011;65100;46.884;17.410;2022-12-07T07:42:03;16.85;;;8.10;;
76290;SDS011;65100;46.884;17.410;2022-12-07T07:44:29;19.53;;;9.80;;
76290;SDS011;65100;46.884;17.410;2022-12-07T07:46:54;22.77;;;12.50;;
76290;SDS011;65100;46.884;17.410;2022-12-07T07:49:20;26.73;;;13.23;;
76290;SDS011;65100;46.884;17.410;2022-12-07T07:51:45;22.73;;;12.03;;
76290;SDS011;65100;46.884;17.410;2022-12-07T07:54:11;26.15;;;12.80;;
76290;SDS011;65100;46.884;17.410;2022-12-07T07:56:37;25.23;;;13.07;;
76290;SDS011;65100;46.884;17.410;2022-12-07T07:59:03;28.20;;;14.02;;
76290;SDS011;65100;46.884;17.410;2022-12-07T08:01:28;29.75;;;15.05;;
76290;SDS011;65100;46.884;17.410;2022-12-07T08:03:54;27.20;;;12.63;;
76290;SDS011;65100;46.884;17.410;2022-12-07T08:06:19;26.80;;;13.57;;
76290;SDS011;65100;46.884;17.410;2022-12-07T08:08:45;24.30;;;13.07;;
76290;SDS011;65100;46.884;17.410;2022-12-07T08:11:10;20.37;;;10.30;;
76290;SDS011;65100;46.884;17.410;2022-12-07T08:13:36;19.07;;;9.57;;
76290;SDS011;65100;46.884;17.410;2022-12-07T08:16:06;18.27;;;9.50;;
76290;SDS011;65100;46.884;17.410;2022-12-07T08:18:37;17.55;;;9.05;;
76290;SDS011;65100;46.884;17.410;2022-12-07T08:21:04;17.17;;;8.95;;
76290;SDS011;65100;46.884;17.410;2022-12-07T08:23:31;16.92;;;8.73;;
76290;SDS011;65100;46.884;17.410;2022-12-07T08:26:09;17.33;;;9.10;;
76290;SDS011;65100;46.884;17.410;2022-12-07T08:28:37;18.52;;;9.93;;
76290;SDS011;65100;46.884;17.410;2022-12-07T08:31:03;18.50;;;9.47;;
76290;SDS011;65100;46.884;17.410;2022-12-07T08:33:36;18.08;;;9.77;;
76290;SDS011;65100;46.884;17.410;2022-12-07T08:36:03;19.40;;;10.50;;
76290;SDS011;65100;46.884;17.410;2022-12-07T08:38:30;23.08;;;13.30;;
76290;SDS011;65100;46.884;17.410;2022-12-07T08:40:56;20.83;;;11.73;;
76290;SDS011;65100;46.884;17.410;2022-12-07T08:43:22;22.13;;;12.07;;
76290;SDS011;65100;46.884;17.410;2022-12-07T08:45:48;28.80;;;14.10;;
76290;SDS011;65100;46.884;17.410;2022-12-07T08:48:24;28.85;;;14.25;;
76290;SDS011;65100;46.884;17.410;2022-12-07T08:50:50;28.02;;;13.43;;
76290;SDS011;65100;46.884;17.410;2022-12-07T08:53:16;23.48;;;13.05;;
76290;SDS011;65100;46.884;17.410;2022-12-07T08:55:43;23.07;;;11.37;;
76290;SDS011;65100;46.884;17.410;2022-12-07T08:58:09;23.45;;;12.15;;
76290;SDS011;65100;46.884;17.410;2022-12-07T09:00:35;20.85;;;10.73;;
76290;SDS011;65100;46.884;17.410;2022-12-07T09:03:01;20.20;;;9.57;;
76290;SDS011;65100;46.884;17.410;2022-12-07T09:05:26;25.83;;;13.50;;
76290;SDS011;65100;46.884;17.410;2022-12-07T09:07:54;26.10;;;14.07;;
76290;SDS011;65100;46.884;17.410;2022-12-07T09:10:22;22.33;;;10.80;;
76290;SDS011;65100;46.884;17.410;2022-12-07T09:12:48;20.98;;;10.50;;
76290;SDS011;65100;46.884;17.410;2022-12-07T09:15:14;20.23;;;10.65;;
76290;SDS011;65100;46.884;17.410;2022-12-07T09:17:39;17.17;;;9.30;;
76290;SDS011;65100;46.884;17.410;2022-12-07T09:20:05;19.37;;;10.23;;
76290;SDS011;65100;46.884;17.410;2022-12-07T09:22:31;23.50;;;10.07;;
76290;SDS011;65100;46.884;17.410;2022-12-07T09:24:57;18.00;;;9.02;;
76290;SDS011;65100;46.884;17.410;2022-12-07T09:27:24;18.90;;;10.35;;
76290;SDS011;65100;46.884;17.410;2022-12-07T09:29:49;19.95;;;10.13;;
76290;SDS011;65100;46.884;17.410;2022-12-07T09:32:15;19.60;;;10.37;;
76290;SDS011;65100;46.884;17.410;2022-12-07T09:34:40;22.10;;;10.27;;
76290;SDS011;65100;46.884;17.410;2022-12-07T09:37:06;25.80;;;11.33;;
76290;SDS011;65100;46.884;17.410;2022-12-07T09:39:32;22.58;;;9.75;;
76290;SDS011;65100;46.884;17.410;2022-12-07T09:41:57;21.13;;;10.52;;
76290;SDS011;65100;46.884;17.410;2022-12-07T09:44:25;17.73;;;9.10;;
76290;SDS011;65100;46.884;17.410;2022-12-07T09:46:54;18.38;;;9.65;;
76290;SDS011;65100;46.884;17.410;2022-12-07T09:49:22;19.00;;;10.27;;
76290;SDS011;65100;46.884;17.410;2022-12-07T09:52:17;18.98;;;9.80;;
76290;SDS011;65100;46.884;17.410;2022-12-07T09:54:50;17.55;;;9.43;;
76290;SDS011;65100;46.884;17.410;2022-12-07T09:57:16;17.50;;;8.30;;
76290;SDS011;65100;46.884;17.410;2022-12-07T09:59:43;16.23;;;9.15;;
76290;SDS011;65100;46.884;17.410;2022-12-07T10:04:46;16.83;;;8.60;;
76290;SDS011;65100;46.884;17.410;2022-12-07T10:07:15;15.50;;;8.55;;
76290;SDS011;65100;46.884;17.410;2022-12-07T10:09:40;18.53;;;8.50;;
76290;SDS011;65100;46.884;17.410;2022-12-07T10:12:07;15.40;;;8.80;;
76290;SDS011;65100;46.884;17.410;2022-12-07T10:14:36;15.85;;;9.60;;
76290;SDS011;65100;46.884;17.410;2022-12-07T10:17:15;15.20;;;8.20;;
76290;SDS011;65100;46.884;17.410;2022-12-07T10:22:37;16.10;;;8.98;;
76290;SDS011;65100;46.884;17.410;2022-12-07T10:25:18;16.40;;;9.23;;
76290;SDS011;65100;46.884;17.410;2022-12-07T10:27:57;15.15;;;9.18;;
76290;SDS011;65100;46.884;17.410;2022-12-07T10:30:24;17.20;;;8.30;;
76290;SDS011;65100;46.884;17.410;2022-12-07T10:32:49;17.35;;;9.05;;
76290;SDS011;65100;46.884;17.410;2022-12-07T10:35:25;18.87;;;10.83;;
76290;SDS011;65100;46.884;17.410;2022-12-07T10:37:52;18.02;;;9.38;;
76290;SDS011;65100;46.884;17.410;2022-12-07T10:40:24;18.90;;;10.48;;
76290;SDS011;65100;46.884;17.410;2022-12-07T10:46:01;18.25;;;9.15;;
76290;SDS011;65100;46.884;17.410;2022-12-07T10:51:47;17.95;;;10.40;;
76290;SDS011;65100;46.884;17.410;2022-12-07T10:54:29;20.15;;;11.05;;
76290;SDS011;65100;46.884;17.410;2022-12-07T11:27:57;19.45;;;10.23;;
76290;SDS011;65100;46.884;17.410;2022-12-07T11:33:51;16.65;;;8.60;;
76290;SDS011;65100;46.884;17.410;2022-12-07T11:36:43;22.58;;;11.50;;
76290;SDS011;65100;46.884;17.410;2022-12-07T11:41:51;23.05;;;12.02;;
76290;SDS011;65100;46.884;17.410;2022-12-07T11:44:25;23.40;;;12.37;;
76290;SDS011;65100;46.884;17.410;2022-12-07T11:46:59;16.52;;;9.38;;
76290;SDS011;65100;46.884;17.410;2022-12-07T11:55:56;18.65;;;10.48;;
76290;SDS011;65100;46.884;17.410;2022-12-07T12:00:49;16.38;;;8.82;;
76290;SDS011;65100;46.884;17.410;2022-12-07T12:03:22;17.17;;;9.65;;
76290;SDS011;65100;46.884;17.410;2022-12-07T12:05:56;18.02;;;10.27;;
76290;SDS011;65100;46.884;17.410;2022-12-07T12:08:32;17.57;;;9.93;;
76290;SDS011;65100;46.884;17.410;2022-12-07T12:16:58;17.65;;;9.90;;
76290;SDS011;65100;46.884;17.410;2022-12-07T12:21:57;13.67;;;7.20;;
76290;SDS011;65100;46.884;17.410;2022-12-07T12:24:36;13.43;;;7.65;;
76290;SDS011;65100;46.884;17.410;2022-12-07T12:27:06;14.68;;;7.60;;
76290;SDS011;65100;46.884;17.410;2022-12-07T12:29:44;11.27;;;6.20;;
76290;SDS011;65100;46.884;17.410;2022-12-07T12:32:20;14.73;;;7.28;;
76290;SDS011;65100;46.884;17.410;2022-12-07T12:35:03;13.67;;;7.47;;
76290;SDS011;65100;46.884;17.410;2022-12-07T12:37:48;12.93;;;6.40;;
76290;SDS011;65100;46.884;17.410;2022-12-07T12:42:49;12.00;;;6.37;;
76290;SDS011;65100;46.884;17.410;2022-12-07T12:45:28;11.75;;;6.82;;
76290;SDS011;65100;46.884;17.410;2022-12-07T12:47:58;12.35;;;6.45;;
76290;SDS011;65100;46.884;17.410;2022-12-07T12:50:34;13.27;;;6.13;;
76290;SDS011;65100;46.884;17.410;2022-12-07T12:58:29;11.48;;;4.95;;
76290;SDS011;65100;46.884;17.410;2022-12-07T13:04:12;11.60;;;5.82;;
76290;SDS011;65100;46.884;17.410;2022-12-07T13:06:46;13.02;;;6.32;;
76290;SDS011;65100;46.884;17.410;2022-12-07T13:09:19;14.70;;;7.30;;
76290;SDS011;65100;46.884;17.410;2022-12-07T13:11:48;13.65;;;7.18;;
76290;SDS011;65100;46.884;17.410;2022-12-07T13:17:11;13.30;;;7.15;;
76290;SDS011;65100;46.884;17.410;2022-12-07T13:19:55;13.07;;;6.67;;
76290;SDS011;65100;46.884;17.410;2022-12-07T13:24:59;13.55;;;7.32;;
76290;SDS011;65100;46.884;17.410;2022-12-07T13:27:32;13.82;;;7.55;;
76290;SDS011;65100;46.884;17.410;2022-12-07T13:29:59;13.83;;;7.07;;
76290;SDS011;65100;46.884;17.410;2022-12-07T13:32:26;11.57;;;6.00;;
76290;SDS011;65100;46.884;17.410;2022-12-07T13:34:53;13.93;;;6.60;;
76290;SDS011;65100;46.884;17.410;2022-12-07T13:37:25;12.60;;;6.67;;
76290;SDS011;65100;46.884;17.410;2022-12-07T13:40:15;12.57;;;6.57;;
76290;SDS011;65100;46.884;17.410;2022-12-07T13:42:44;13.65;;;7.07;;
76290;SDS011;65100;46.884;17.410;2022-12-07T13:45:23;14.97;;;6.33;;
76290;SDS011;65100;46.884;17.410;2022-12-07T13:48:19;14.20;;;6.55;;
76290;SDS011;65100;46.884;17.410;2022-12-07T13:50:54;13.80;;;7.32;;
76290;SDS011;65100;46.884;17.410;2022-12-07T13:53:21;12.60;;;6.72;;
76290;SDS011;65100;46.884;17.410;2022-12-07T13:55:47;14.47;;;7.77;;
76290;SDS011;65100;46.884;17.410;2022-12-07T13:58:13;14.50;;;7.50;;
76290;SDS011;65100;46.884;17.410;2022-12-07T14:00:39;18.20;;;9.30;;
76290;SDS011;65100;46.884;17.410;2022-12-07T14:05:38;13.40;;;7.13;;
76290;SDS011;65100;46.884;17.410;2022-12-07T14:10:38;14.45;;;7.15;;
76290;SDS011;65100;46.884;17.410;2022-12-07T14:16:18;14.73;;;8.07;;
76290;SDS011;65100;46.884;17.410;2022-12-07T14:18:53;26.17;;;13.47;;
76290;SDS011;65100;46.884;17.410;2022-12-07T14:21:20;17.00;;;8.93;;
76290;SDS011;65100;46.884;17.410;2022-12-07T14:26:37;14.23;;;7.50;;
76290;SDS011;65100;46.884;17.410;2022-12-07T14:35:09;13.90;;;7.30;;
76290;SDS011;65100;46.884;17.410;2022-12-07T14:37:36;14.20;;;7.25;;
76290;SDS011;65100;46.884;17.410;2022-12-07T14:40:03;14.85;;;7.72;;
76290;SDS011;65100;46.884;17.410;2022-12-07T14:42:30;14.70;;;8.07;;
76290;SDS011;65100;46.884;17.410;2022-12-07T14:44:56;12.53;;;6.73;;
76290;SDS011;65100;46.884;17.410;2022-12-07T14:47:23;13.20;;;7.07;;
76290;SDS011;65100;46.884;17.410;2022-12-07T14:49:49;42.17;;;19.02;;
76290;SDS011;65100;46.884;17.410;2022-12-07T14:52:27;15.70;;;8.17;;
76290;SDS011;65100;46.884;17.410;2022-12-07T14:54:55;13.70;;;7.78;;
76290;SDS011;65100;46.884;17.410;2022-12-07T14:57:20;14.20;;;7.57;;
76290;SDS011;65100;46.884;17.410;2022-12-07T14:59:46;13.67;;;6.80;;
76290;SDS011;65100;46.884;17.410;2022-12-07T15:02:12;12.67;;;6.83;;
76290;SDS011;65100;46.884;17.410;2022-12-07T15:04:39;12.75;;;7.03;;
76290;SDS011;65100;46.884;17.410;2022-12-07T15:07:05;14.45;;;7.57;;
76290;SDS011;65100;46.884;17.410;2022-12-07T15:09:35;14.63;;;6.47;;
76290;SDS011;65100;46.884;17.410;2022-12-07T15:12:00;13.70;;;7.10;;
76290;SDS011;65100;46.884;17.410;2022-12-07T15:14:26;12.67;;;6.60;;
76290;SDS011;65100;46.884;17.410;2022-12-07T15:16:51;13.43;;;6.95;;
76290;SDS011;65100;46.884;17.410;2022-12-07T15:19:21;11.97;;;6.83;;
76290;SDS011;65100;46.884;17.410;2022-12-07T15:21:51;14.10;;;7.55;;
76290;SDS011;65100;46.884;17.410;2022-12-07T15:24:16;14.40;;;7.70;;
76290;SDS011;65100;46.884;17.410;2022-12-07T15:26:42;16.15;;;8.77;;
76290;SDS011;65100;46.884;17.410;2022-12-07T15:29:08;12.50;;;7.20;;
76290;SDS011;65100;46.884;17.410;2022-12-07T15:31:35;12.63;;;7.20;;
76290;SDS011;65100;46.884;17.410;2022-12-07T15:34:01;14.37;;;8.20;;
76290;SDS011;65100;46.884;17.410;2022-12-07T15:36:27;13.50;;;7.43;;
76290;SDS011;65100;46.884;17.410;2022-12-07T15:38:55;14.02;;;7.53;;
76290;SDS011;65100;46.884;17.410;2022-12-07T15:41:21;16.55;;;9.15;;
76290;SDS011;65100;46.884;17.410;2022-12-07T15:43:56;15.30;;;8.03;;
76290;SDS011;65100;46.884;17.410;2022-12-07T15:46:40;15.27;;;8.18;;
76290;SDS011;65100;46.884;17.410;2022-12-07T15:49:11;16.30;;;9.00;;
76290;SDS011;65100;46.884;17.410;2022-12-07T15:51:38;15.93;;;8.68;;
76290;SDS011;65100;46.884;17.410;2022-12-07T15:54:04;16.73;;;9.25;;
76290;SDS011;65100;46.884;17.410;2022-12-07T15:56:30;16.80;;;8.80;;
76290;SDS011;65100;46.884;17.410;2022-12-07T15:58:56;17.90;;;9.77;;
76290;SDS011;65100;46.884;17.410;2022-12-07T16:01:22;17.40;;;9.07;;
76290;SDS011;65100;46.884;17.410;2022-12-07T16:03:47;18.38;;;9.98;;
76290;SDS011;65100;46.884;17.410;2022-12-07T16:06:15;16.87;;;9.20;;
76290;SDS011;65100;46.884;17.410;2022-12-07T16:08:45;17.40;;;9.00;;
76290;SDS011;65100;46.884;17.410;2022-12-07T16:11:11;18.10;;;9.63;;
76290;SDS011;65100;46.884;17.410;2022-12-07T16:13:37;18.83;;;9.07;;
76290;SDS011;65100;46.884;17.410;2022-12-07T16:16:05;16.58;;;8.30;;
76290;SDS011;65100;46.884;17.410;2022-12-07T16:18:32;16.83;;;9.38;;
76290;SDS011;65100;46.884;17.410;2022-12-07T16:20:57;16.42;;;8.60;;
76290;SDS011;65100;46.884;17.410;2022-12-07T16:23:23;19.47;;;9.40;;
76290;SDS011;65100;46.884;17.410;2022-12-07T16:25:48;25.73;;;13.13;;
76290;SDS011;65100;46.884;17.410;2022-12-07T16:28:14;18.57;;;9.27;;
76290;SDS011;65100;46.884;17.410;2022-12-07T16:30:39;17.77;;;8.45;;
76290;SDS011;65100;46.884;17.410;2022-12-07T16:33:05;26.13;;;13.20;;
76290;SDS011;65100;46.884;17.410;2022-12-07T16:35:31;26.38;;;12.48;;
76290;SDS011;65100;46.884;17.410;2022-12-07T16:37:56;35.57;;;16.70;;
76290;SDS011;65100;46.884;17.410;2022-12-07T16:40:22;15.87;;;9.30;;
76290;SDS011;65100;46.884;17.410;2022-12-07T16:42:47;14.55;;;7.18;;
76290;SDS011;65100;46.884;17.410;2022-12-07T16:45:12;13.03;;;6.80;;